Time;durP1;ratioP1;P1;durP2;ratioP2;P2;SDS_P1;SDS_P2;PMS_P1;PMS_P2;Temp;Humidity;BMP_temperature;BMP_pressure;BME280_temperature;BME280_humidity;BME280_pressure;Samples;Min_cycle;Max_cycle;Signal;HPM_P1;HPM_P2
2023/08/11 00:01:24;;;;;;;4.73;3.33;;;;;;;;;;10436640;28;20409;-81
2023/08/11 00:06:27;;;;;;;4.10;3.43;;;;;;;;;;10433089;28;20983;-81
2023/08/11 00:11:30;;;;;;;4.57;3.60;;;;;;;;;;10434401;28;20819;-81
2023/08/11 00:16:33;;;;;;;4.87;3.80;;;;;;;;;;10435780;28;20416;-81
2023/08/11 00:21:35;;;;;;;4.82;3.83;;;;;;;;;;10433556;28;20409;-81
2023/08/11 00:26:39;;;;;;;5.13;4.00;;;;;;;;;;10433820;28;20432;-82
2023/08/11 00:31:41;;;;;;;7.03;4.30;;;;;;;;;;10431451;28;20404;-82
2023/08/11 00:36:44;;;;;;;5.35;4.70;;;;;;;;;;10432327;28;20431;-80
2023/08/11 00:41:47;;;;;;;6.28;5.00;;;;;;;;;;10433026;28;20426;-81
2023/08/11 00:46:50;;;;;;;6.18;5.40;;;;;;;;;;10429584;28;20551;-81
2023/08/11 00:51:53;;;;;;;6.40;5.57;;;;;;;;;;10458360;23;20482;-81
2023/08/11 00:56:57;;;;;;;6.80;6.10;;;;;;;;;;10477749;28;20469;-81
2023/08/11 01:02:00;;;;;;;6.13;5.60;;;;;;;;;;10472151;28;20408;-81
2023/08/11 01:07:10;;;;;;;6.63;5.80;;;;;;;;;;10472324;28;20425;-81
2023/08/11 01:12:21;;;;;;;6.03;5.50;;;;;;;;;;10474006;28;20410;-81
2023/08/11 01:17:25;;;;;;;6.03;5.43;;;;;;;;;;10470413;28;20411;-81
2023/08/11 01:22:31;;;;;;;7.37;5.00;;;;;;;;;;10451385;28;20412;-81
2023/08/11 01:27:37;;;;;;;5.80;5.20;;;;;;;;;;10474251;28;20462;-82
2023/08/11 01:32:39;;;;;;;6.35;5.13;;;;;;;;;;10472852;28;20795;-81
2023/08/11 01:37:43;;;;;;;6.85;5.20;;;;;;;;;;10469808;28;20411;-81
2023/08/11 01:42:47;;;;;;;5.78;5.00;;;;;;;;;;10475790;28;20443;-81
2023/08/11 01:47:50;;;;;;;6.75;5.10;;;;;;;;;;10468761;28;20680;-81
2023/08/11 01:52:54;;;;;;;5.53;4.97;;;;;;;;;;10471718;28;20417;-81
2023/08/11 01:57:57;;;;;;;7.15;5.22;;;;;;;;;;10472189;28;20947;-80
2023/08/11 02:03:00;;;;;;;5.85;4.70;;;;;;;;;;10471517;28;20464;-81
2023/08/11 02:08:03;;;;;;;6.28;5.30;;;;;;;;;;10469059;28;20423;-81
2023/08/11 02:13:06;;;;;;;6.07;4.90;;;;;;;;;;10466116;28;20515;-81
2023/08/11 02:18:09;;;;;;;5.18;4.68;;;;;;;;;;10467433;28;20460;-81
2023/08/11 02:23:11;;;;;;;7.33;4.53;;;;;;;;;;10464288;28;20411;-81
2023/08/11 02:28:16;;;;;;;5.57;4.35;;;;;;;;;;10470997;28;20463;-81
2023/08/11 02:33:20;;;;;;;5.20;4.50;;;;;;;;;;10470576;28;20405;-81
2023/08/11 02:38:22;;;;;;;5.45;4.35;;;;;;;;;;10469147;28;20413;-81
2023/08/11 02:43:27;;;;;;;4.75;4.10;;;;;;;;;;10470425;28;20419;-81
2023/08/11 02:48:29;;;;;;;4.90;4.05;;;;;;;;;;10471215;28;20454;-81
2023/08/11 02:53:32;;;;;;;4.33;3.80;;;;;;;;;;10467758;28;20411;-81
2023/08/11 02:58:35;;;;;;;5.45;3.75;;;;;;;;;;10474029;28;20952;-81
2023/08/11 03:03:38;;;;;;;4.38;3.85;;;;;;;;;;10467697;28;20453;-82
2023/08/11 03:08:40;;;;;;;5.83;4.03;;;;;;;;;;10467122;28;20423;-82
2023/08/11 03:13:44;;;;;;;4.57;3.77;;;;;;;;;;10467686;28;20470;-81
2023/08/11 03:18:46;;;;;;;5.68;4.20;;;;;;;;;;10478644;28;20402;-81
2023/08/11 03:23:49;;;;;;;5.15;3.75;;;;;;;;;;10474279;28;20411;-81
2023/08/11 03:28:52;;;;;;;8.05;3.60;;;;;;;;;;10482074;28;20426;-81
2023/08/11 03:33:55;;;;;;;4.85;4.07;;;;;;;;;;10455220;28;20430;-81
2023/08/11 03:38:57;;;;;;;5.33;3.60;;;;;;;;;;10474518;28;20416;-80
2023/08/11 03:44:01;;;;;;;5.40;3.75;;;;;;;;;;10466282;28;20782;-81
2023/08/11 03:49:03;;;;;;;3.80;3.40;;;;;;;;;;10477499;28;20418;-81
2023/08/11 03:54:06;;;;;;;7.03;4.38;;;;;;;;;;10472634;28;20406;-82
2023/08/11 03:59:10;;;;;;;3.97;3.47;;;;;;;;;;10474627;28;20408;-80
2023/08/11 04:04:13;;;;;;;3.38;3.00;;;;;;;;;;10454275;28;20469;-82
2023/08/11 04:09:15;;;;;;;4.07;3.50;;;;;;;;;;10464867;28;20449;-81
2023/08/11 04:14:19;;;;;;;5.18;3.97;;;;;;;;;;10474900;28;20466;-81
2023/08/11 04:19:21;;;;;;;4.55;4.13;;;;;;;;;;10476325;28;20410;-80
2023/08/11 04:24:23;;;;;;;4.77;4.27;;;;;;;;;;10472099;28;20458;-80
2023/08/11 04:29:27;;;;;;;4.93;4.40;;;;;;;;;;10476132;28;20477;-81
2023/08/11 04:34:29;;;;;;;5.60;3.72;;;;;;;;;;10474998;28;20424;-81
2023/08/11 04:39:32;;;;;;;5.03;3.67;;;;;;;;;;10472593;28;20403;-81
2023/08/11 04:44:36;;;;;;;5.10;3.25;;;;;;;;;;10478359;28;20465;-81
2023/08/11 04:49:38;;;;;;;4.75;3.20;;;;;;;;;;10473929;28;20453;-83
2023/08/11 04:54:40;;;;;;;4.72;3.55;;;;;;;;;;10471684;28;20459;-82
2023/08/11 04:59:45;;;;;;;4.57;3.20;;;;;;;;;;10476482;28;20420;-82
2023/08/11 05:04:47;;;;;;;5.30;3.80;;;;;;;;;;10471586;28;20412;-83
2023/08/11 05:09:50;;;;;;;5.40;3.58;;;;;;;;;;10473603;28;20428;-82
2023/08/11 05:14:54;;;;;;;4.55;3.30;;;;;;;;;;10473996;28;20418;-82
2023/08/11 05:19:56;;;;;;;4.05;3.10;;;;;;;;;;10472571;28;20762;-82
2023/08/11 05:24:58;;;;;;;3.35;3.05;;;;;;;;;;10471541;28;20814;-82
2023/08/11 05:30:02;;;;;;;4.43;2.78;;;;;;;;;;10471359;28;20452;-82
2023/08/11 05:35:05;;;;;;;3.53;2.70;;;;;;;;;;10470370;28;21044;-81
2023/08/11 05:40:09;;;;;;;3.90;2.75;;;;;;;;;;10471451;28;20462;-82
2023/08/11 05:45:13;;;;;;;4.45;2.55;;;;;;;;;;10469201;28;20403;-81
2023/08/11 05:50:15;;;;;;;3.45;2.40;;;;;;;;;;10471923;28;20455;-83
2023/08/11 05:55:18;;;;;;;3.85;2.58;;;;;;;;;;10469992;28;20394;-82
2023/08/11 06:00:22;;;;;;;4.18;2.30;;;;;;;;;;10468444;28;20409;-81
2023/08/11 06:05:24;;;;;;;2.83;2.00;;;;;;;;;;10471339;28;20407;-81
2023/08/11 06:10:26;;;;;;;3.40;2.00;;;;;;;;;;10470209;28;20413;-82
2023/08/11 06:15:31;;;;;;;2.00;1.63;;;;;;;;;;10476976;28;20598;-82
2023/08/11 06:20:33;;;;;;;2.10;1.60;;;;;;;;;;10468668;28;20398;-83
2023/08/11 06:25:36;;;;;;;2.22;2.00;;;;;;;;;;10470302;28;20408;-83
2023/08/11 06:30:40;;;;;;;2.55;1.98;;;;;;;;;;10470040;28;20427;-82
2023/08/11 06:35:43;;;;;;;2.73;1.53;;;;;;;;;;10468890;28;20410;-82
2023/08/11 06:40:45;;;;;;;3.40;1.70;;;;;;;;;;10467808;28;20428;-82
2023/08/11 06:45:49;;;;;;;2.72;1.52;;;;;;;;;;10468120;28;20893;-82
2023/08/11 06:50:51;;;;;;;1.63;1.53;;;;;;;;;;10473058;28;20441;-81
2023/08/11 06:55:53;;;;;;;2.80;1.52;;;;;;;;;;10477385;28;20469;-82
2023/08/11 07:00:57;;;;;;;4.90;1.60;;;;;;;;;;10479864;28;20414;-82
2023/08/11 07:05:59;;;;;;;3.63;1.95;;;;;;;;;;10478126;28;20465;-82
2023/08/11 07:11:01;;;;;;;3.10;1.75;;;;;;;;;;10476848;28;20422;-83
2023/08/11 07:16:05;;;;;;;2.80;1.77;;;;;;;;;;10479775;28;20486;-82
2023/08/11 07:21:07;;;;;;;5.05;2.20;;;;;;;;;;10476472;28;20408;-81
2023/08/11 07:26:10;;;;;;;3.90;1.65;;;;;;;;;;10476679;28;20436;-82
2023/08/11 07:31:13;;;;;;;5.43;2.37;;;;;;;;;;10481781;28;20515;-82
2023/08/11 07:36:16;;;;;;;4.43;1.90;;;;;;;;;;10475968;28;20521;-82
2023/08/11 07:41:18;;;;;;;4.17;1.70;;;;;;;;;;10476669;28;20459;-82
2023/08/11 07:46:22;;;;;;;2.60;1.67;;;;;;;;;;10477692;28;20404;-82
2023/08/11 07:51:24;;;;;;;1.70;1.33;;;;;;;;;;10475504;28;20452;-82
2023/08/11 07:56:26;;;;;;;5.28;1.58;;;;;;;;;;10474540;28;20458;-82
2023/08/11 08:01:30;;;;;;;1.95;1.60;;;;;;;;;;10472320;28;20964;-82
2023/08/11 08:06:33;;;;;;;4.27;1.90;;;;;;;;;;10475842;28;20405;-82
2023/08/11 08:11:35;;;;;;;1.48;1.23;;;;;;;;;;10473475;28;20466;-82
2023/08/11 08:16:41;;;;;;;2.03;1.40;;;;;;;;;;10473888;28;20415;-82
2023/08/11 08:21:46;;;;;;;2.70;1.47;;;;;;;;;;10475166;28;20949;-81
2023/08/11 08:26:51;;;;;;;3.42;1.98;;;;;;;;;;10474054;28;20430;-82
2023/08/11 08:31:54;;;;;;;3.67;1.90;;;;;;;;;;10477231;28;20406;-82
2023/08/11 08:36:57;;;;;;;2.30;1.57;;;;;;;;;;10473450;28;20560;-82
2023/08/11 08:42:00;;;;;;;4.00;1.70;;;;;;;;;;10474111;28;20459;-83
2023/08/11 08:47:05;;;;;;;3.88;1.73;;;;;;;;;;10472215;28;20414;-81
2023/08/11 08:52:07;;;;;;;2.22;1.70;;;;;;;;;;10473129;28;20465;-82
2023/08/11 08:57:10;;;;;;;3.35;1.88;;;;;;;;;;10474286;28;20815;-82
2023/08/11 09:02:14;;;;;;;2.10;1.80;;;;;;;;;;10473804;28;20416;-82
2023/08/11 09:07:17;;;;;;;3.20;2.08;;;;;;;;;;10472854;28;20483;-82
2023/08/11 09:12:19;;;;;;;2.40;1.40;;;;;;;;;;10470883;28;20448;-82
2023/08/11 09:17:23;;;;;;;2.03;1.83;;;;;;;;;;10474391;28;21213;-82
2023/08/11 09:22:25;;;;;;;3.05;1.90;;;;;;;;;;10472099;28;20467;-81
2023/08/11 09:27:30;;;;;;;1.87;1.63;;;;;;;;;;10474833;28;20446;-83
2023/08/11 09:32:33;;;;;;;2.10;1.73;;;;;;;;;;10474833;28;20404;-83
2023/08/11 09:37:36;;;;;;;2.00;1.70;;;;;;;;;;10472173;28;20406;-82
2023/08/11 09:42:39;;;;;;;6.07;1.83;;;;;;;;;;10472912;28;20515;-83
2023/08/11 09:47:43;;;;;;;2.25;1.63;;;;;;;;;;10471437;28;20410;-83
2023/08/11 09:52:45;;;;;;;1.85;1.70;;;;;;;;;;10470251;28;20960;-82
2023/08/11 09:57:49;;;;;;;2.72;1.83;;;;;;;;;;10469499;28;20438;-81
2023/08/11 10:03:05;;;;;;;1.73;1.63;;;;;;;;;;10469627;28;20416;-82
2023/08/11 10:08:10;;;;;;;2.10;1.67;;;;;;;;;;10469375;28;20459;-82
2023/08/11 10:13:17;;;;;;;1.52;1.42;;;;;;;;;;10475579;28;20410;-82
2023/08/11 10:18:22;;;;;;;2.50;1.83;;;;;;;;;;10468925;28;20411;-82
2023/08/11 10:23:25;;;;;;;2.88;1.90;;;;;;;;;;10448912;28;20412;-82
2023/08/11 10:28:27;;;;;;;2.75;1.70;;;;;;;;;;10462567;28;20423;-82
2023/08/11 10:33:32;;;;;;;3.17;1.75;;;;;;;;;;10471168;28;20796;-81
2023/08/11 10:38:34;;;;;;;3.50;1.63;;;;;;;;;;10448359;28;20457;-81
2023/08/11 10:43:40;;;;;;;1.50;1.40;;;;;;;;;;10453312;28;20487;-82
2023/08/11 10:48:44;;;;;;;2.80;2.30;;;;;;;;;;10467413;28;20488;-82
2023/08/11 10:53:47;;;;;;;1.50;1.40;;;;;;;;;;10470172;28;20410;-82
2023/08/11 10:58:49;;;;;;;2.08;1.40;;;;;;;;;;10467351;28;20832;-81
2023/08/11 11:03:55;;;;;;;1.88;1.65;;;;;;;;;;10470922;28;20460;-82
2023/08/11 11:08:57;;;;;;;2.03;1.70;;;;;;;;;;10467837;28;20416;-82
2023/08/11 11:14:00;;;;;;;3.58;1.92;;;;;;;;;;10473445;28;20908;-82
2023/08/11 11:19:06;;;;;;;2.63;1.85;;;;;;;;;;10466772;28;20454;-82
2023/08/11 11:24:09;;;;;;;2.17;1.90;;;;;;;;;;10469914;28;20414;-81
2023/08/11 11:29:11;;;;;;;2.58;1.80;;;;;;;;;;10467702;28;20916;-82
2023/08/11 11:34:15;;;;;;;2.50;1.85;;;;;;;;;;10468468;28;20412;-82
2023/08/11 11:39:18;;;;;;;2.75;1.80;;;;;;;;;;10477117;28;20475;-81
2023/08/11 11:44:21;;;;;;;2.70;1.70;;;;;;;;;;10476876;28;20415;-82
2023/08/11 11:49:25;;;;;;;2.70;1.90;;;;;;;;;;10477821;28;20422;-82
2023/08/11 11:54:30;;;;;;;2.33;1.70;;;;;;;;;;10475738;28;20477;-82
2023/08/11 11:59:33;;;;;;;3.63;1.90;;;;;;;;;;10473504;28;20407;-82
2023/08/11 12:04:39;;;;;;;2.57;1.80;;;;;;;;;;10475982;28;20802;-82
2023/08/11 12:09:51;;;;;;;2.72;2.30;;;;;;;;;;10474630;28;20508;-82
2023/08/11 12:14:53;;;;;;;2.10;1.90;;;;;;;;;;10472672;28;20983;-82
2023/08/11 12:19:57;;;;;;;2.00;1.80;;;;;;;;;;10473939;28;20468;-82
2023/08/11 12:24:59;;;;;;;2.97;1.83;;;;;;;;;;10475142;28;20399;-82
2023/08/11 12:30:02;;;;;;;2.80;1.83;;;;;;;;;;10472403;28;20531;-83
2023/08/11 12:35:06;;;;;;;3.65;2.00;;;;;;;;;;10474673;28;20408;-82
2023/08/11 12:40:09;;;;;;;2.00;1.80;;;;;;;;;;10473059;28;20455;-82
2023/08/11 12:45:12;;;;;;;5.95;2.20;;;;;;;;;;10475771;28;20479;-82
2023/08/11 12:50:15;;;;;;;2.10;1.90;;;;;;;;;;10473226;28;20453;-82
2023/08/11 12:55:18;;;;;;;2.27;2.07;;;;;;;;;;10472558;28;20403;-83
2023/08/11 13:00:20;;;;;;;2.38;1.83;;;;;;;;;;10474569;28;20406;-82
2023/08/11 13:05:24;;;;;;;2.38;1.77;;;;;;;;;;10473105;28;20411;-82
2023/08/11 13:10:27;;;;;;;2.60;1.90;;;;;;;;;;10471772;28;20900;-83
2023/08/11 13:15:29;;;;;;;1.90;1.80;;;;;;;;;;10474632;28;20481;-81
2023/08/11 13:20:33;;;;;;;2.20;2.00;;;;;;;;;;10471734;28;20406;-83
2023/08/11 13:25:35;;;;;;;3.25;1.90;;;;;;;;;;10473287;28;20403;-83
2023/08/11 13:30:38;;;;;;;2.90;2.30;;;;;;;;;;10475622;28;20419;-82
2023/08/11 13:35:42;;;;;;;2.58;2.35;;;;;;;;;;10471536;28;20827;-83
2023/08/11 13:40:44;;;;;;;3.92;2.10;;;;;;;;;;10472115;28;20399;-83
2023/08/11 13:45:46;;;;;;;3.35;1.98;;;;;;;;;;10470668;28;20415;-83
2023/08/11 13:50:52;;;;;;;3.28;2.00;;;;;;;;;;10470129;28;20481;-82
2023/08/11 13:55:54;;;;;;;3.13;1.90;;;;;;;;;;10470634;28;20548;-82
2023/08/11 14:00:57;;;;;;;2.50;1.88;;;;;;;;;;11018600;22;20484;-82
2023/08/11 14:06:00;;;;;;;7.63;2.50;;;;;;;;;;10428625;28;20440;-81
2023/08/11 14:11:03;;;;;;;2.72;2.05;;;;;;;;;;10428981;28;20963;-82
2023/08/11 14:16:05;;;;;;;2.00;1.90;;;;;;;;;;10433805;28;20435;-82
2023/08/11 14:21:09;;;;;;;2.37;2.17;;;;;;;;;;10428022;28;20467;-83
2023/08/11 14:26:11;;;;;;;3.33;2.20;;;;;;;;;;10429626;28;20642;-83
2023/08/11 14:31:13;;;;;;;2.47;2.00;;;;;;;;;;10429348;28;20578;-82
2023/08/11 14:36:17;;;;;;;2.15;1.90;;;;;;;;;;10429519;28;20438;-82
2023/08/11 14:41:19;;;;;;;2.78;1.80;;;;;;;;;;10427999;28;20775;-83
2023/08/11 14:46:22;;;;;;;1.97;1.80;;;;;;;;;;10430518;28;20891;-82
2023/08/11 14:51:25;;;;;;;2.20;1.90;;;;;;;;;;10428829;28;20427;-83
2023/08/11 14:56:28;;;;;;;3.38;2.00;;;;;;;;;;10427496;28;20495;-82
2023/08/11 15:01:30;;;;;;;2.10;1.90;;;;;;;;;;10431770;28;20448;-83
2023/08/11 15:06:34;;;;;;;2.60;1.80;;;;;;;;;;10429050;28;20465;-82
2023/08/11 15:11:36;;;;;;;3.05;2.00;;;;;;;;;;10430194;28;20830;-82
2023/08/11 15:16:38;;;;;;;2.17;1.97;;;;;;;;;;10438249;28;20473;-82
2023/08/11 15:21:42;;;;;;;4.75;2.30;;;;;;;;;;10433836;28;20483;-82
2023/08/11 15:26:44;;;;;;;2.25;2.05;;;;;;;;;;10437866;28;20408;-82
2023/08/11 15:31:47;;;;;;;2.47;2.27;;;;;;;;;;10440410;28;20419;-82
2023/08/11 15:36:50;;;;;;;2.47;2.08;;;;;;;;;;10432539;28;20421;-82
2023/08/11 15:41:53;;;;;;;2.53;2.03;;;;;;;;;;10436742;28;20457;-82
2023/08/11 15:46:55;;;;;;;3.90;2.10;;;;;;;;;;10436707;28;20890;-82
2023/08/11 15:51:58;;;;;;;2.90;2.10;;;;;;;;;;10432358;28;20480;-82
2023/08/11 15:57:01;;;;;;;2.30;2.10;;;;;;;;;;10436546;28;20416;-83
2023/08/11 16:02:03;;;;;;;3.22;2.60;;;;;;;;;;10432284;28;20961;-83
2023/08/11 16:07:07;;;;;;;1.80;1.70;;;;;;;;;;10432533;28;20409;-83
2023/08/11 16:12:09;;;;;;;2.53;1.50;;;;;;;;;;10435504;28;20420;-83
2023/08/11 16:17:11;;;;;;;2.33;1.60;;;;;;;;;;10435750;28;20410;-82
2023/08/11 16:22:16;;;;;;;2.60;1.53;;;;;;;;;;10431074;28;20962;-86
2023/08/11 16:27:19;;;;;;;2.97;1.80;;;;;;;;;;10438193;28;20462;-84
2023/08/11 16:32:21;;;;;;;3.17;2.08;;;;;;;;;;10432056;28;20587;-84
2023/08/11 16:37:24;;;;;;;2.63;1.85;;;;;;;;;;10434765;28;20469;-84
2023/08/11 16:42:27;;;;;;;3.38;1.70;;;;;;;;;;10433229;28;20472;-83
2023/08/11 16:47:29;;;;;;;2.10;1.75;;;;;;;;;;10433517;28;20791;-83
2023/08/11 16:52:33;;;;;;;4.45;1.65;;;;;;;;;;10430936;28;20433;-83
2023/08/11 16:57:35;;;;;;;2.72;1.50;;;;;;;;;;10433026;28;20407;-83
2023/08/11 17:02:37;;;;;;;2.47;1.52;;;;;;;;;;10433666;28;20465;-83
2023/08/11 17:07:42;;;;;;;2.13;1.60;;;;;;;;;;10431334;28;20430;-83
2023/08/11 17:12:44;;;;;;;3.43;1.50;;;;;;;;;;10433019;28;20555;-83
2023/08/11 17:17:46;;;;;;;1.70;1.60;;;;;;;;;;10429581;28;21041;-83
2023/08/11 17:22:50;;;;;;;2.80;1.60;;;;;;;;;;10431436;28;20414;-83
2023/08/11 17:27:52;;;;;;;2.53;1.75;;;;;;;;;;10433478;28;20466;-83
2023/08/11 17:32:55;;;;;;;2.58;1.83;;;;;;;;;;10429940;28;20428;-83
2023/08/11 17:37:58;;;;;;;2.60;1.60;;;;;;;;;;10430721;28;20892;-84
2023/08/11 17:43:01;;;;;;;2.13;1.73;;;;;;;;;;10431534;28;20423;-83
2023/08/11 17:48:03;;;;;;;1.67;1.48;;;;;;;;;;10433425;28;20412;-83
2023/08/11 17:53:07;;;;;;;3.90;1.63;;;;;;;;;;10428921;28;20520;-84
2023/08/11 17:58:09;;;;;;;2.28;1.70;;;;;;;;;;10430796;28;20473;-83
2023/08/11 18:03:12;;;;;;;2.88;1.65;;;;;;;;;;10429378;28;20463;-83
2023/08/11 18:08:15;;;;;;;2.10;1.67;;;;;;;;;;10431906;28;20754;-82
2023/08/11 18:13:18;;;;;;;3.30;1.80;;;;;;;;;;10430573;28;20447;-82
2023/08/11 18:18:20;;;;;;;2.90;2.00;;;;;;;;;;10428969;28;20444;-83
2023/08/11 18:23:24;;;;;;;3.13;1.87;;;;;;;;;;10428234;28;20457;-83
2023/08/11 18:28:26;;;;;;;3.35;1.60;;;;;;;;;;10431463;28;20844;-83
2023/08/11 18:33:28;;;;;;;1.80;1.50;;;;;;;;;;10428159;28;20490;-83
2023/08/11 18:38:32;;;;;;;2.40;1.70;;;;;;;;;;10427874;28;20919;-82
2023/08/11 18:43:34;;;;;;;2.40;1.73;;;;;;;;;;10431877;28;20421;-82
2023/08/11 18:48:37;;;;;;;2.50;1.77;;;;;;;;;;10444405;28;20426;-83
2023/08/11 18:53:41;;;;;;;3.65;2.13;;;;;;;;;;10441238;28;20507;-83
2023/08/11 18:58:44;;;;;;;3.50;2.17;;;;;;;;;;10443182;28;20455;-83
2023/08/11 19:03:46;;;;;;;2.77;1.90;;;;;;;;;;10441696;28;20477;-82
2023/08/11 19:08:50;;;;;;;3.57;2.20;;;;;;;;;;10441233;28;20463;-83
2023/08/11 19:13:52;;;;;;;2.92;2.10;;;;;;;;;;10446010;28;20509;-83
2023/08/11 19:18:54;;;;;;;2.47;2.10;;;;;;;;;;10440557;28;20402;-83
2023/08/11 19:23:58;;;;;;;3.42;2.13;;;;;;;;;;10442637;28;20476;-83
2023/08/11 19:29:01;;;;;;;3.97;1.87;;;;;;;;;;10443622;28;20415;-83
2023/08/11 19:34:03;;;;;;;3.05;1.70;;;;;;;;;;10440075;28;20480;-83
2023/08/11 19:39:07;;;;;;;4.18;1.70;;;;;;;;;;10442421;28;20469;-83
2023/08/11 19:44:10;;;;;;;3.30;2.07;;;;;;;;;;10446355;28;20496;-83
2023/08/11 19:49:12;;;;;;;2.40;1.97;;;;;;;;;;10440379;28;20475;-83
2023/08/11 19:54:16;;;;;;;2.40;2.20;;;;;;;;;;10443913;28;20419;-83
2023/08/11 19:59:18;;;;;;;2.70;1.90;;;;;;;;;;10436587;28;20450;-83
2023/08/11 20:04:21;;;;;;;2.80;2.20;;;;;;;;;;10432452;28;20716;-83
2023/08/11 20:09:25;;;;;;;3.83;3.00;;;;;;;;;;10435165;28;20400;-83
2023/08/11 20:14:27;;;;;;;4.07;2.20;;;;;;;;;;10439163;28;20445;-83
2023/08/11 20:19:30;;;;;;;6.60;2.78;;;;;;;;;;10435099;28;20411;-82
2023/08/11 20:24:33;;;;;;;2.88;2.42;;;;;;;;;;10432165;28;20397;-83
2023/08/11 20:29:36;;;;;;;3.47;3.00;;;;;;;;;;10435161;28;20441;-82
2023/08/11 20:34:38;;;;;;;5.85;3.65;;;;;;;;;;10435096;28;20415;-82
2023/08/11 20:39:42;;;;;;;4.93;3.30;;;;;;;;;;10430535;28;20476;-83
2023/08/11 20:44:44;;;;;;;4.73;3.00;;;;;;;;;;10434467;28;20823;-83
2023/08/11 20:49:47;;;;;;;5.30;3.47;;;;;;;;;;10433588;28;20408;-82
2023/08/11 20:54:50;;;;;;;8.75;3.80;;;;;;;;;;10411036;28;20430;-83
2023/08/11 20:59:53;;;;;;;4.30;3.22;;;;;;;;;;10435420;28;20400;-83
2023/08/11 21:04:55;;;;;;;4.95;3.42;;;;;;;;;;10429871;28;20421;-83
2023/08/11 21:09:59;;;;;;;6.03;3.47;;;;;;;;;;10410230;28;20459;-83
2023/08/11 21:15:02;;;;;;;5.88;3.40;;;;;;;;;;10425619;28;20427;-83
2023/08/11 21:20:06;;;;;;;4.10;3.63;;;;;;;;;;10429564;28;20959;-82
2023/08/11 21:25:10;;;;;;;6.68;4.30;;;;;;;;;;10410604;28;20957;-82
2023/08/11 21:30:13;;;;;;;9.00;4.85;;;;;;;;;;10429038;28;20417;-82
2023/08/11 21:35:15;;;;;;;6.10;4.50;;;;;;;;;;10409103;28;20457;-82
2023/08/11 21:40:19;;;;;;;6.15;5.38;;;;;;;;;;10426133;28;20404;-83
2023/08/11 21:45:22;;;;;;;6.63;5.20;;;;;;;;;;10424023;28;20410;-83
2023/08/11 21:50:26;;;;;;;7.30;5.65;;;;;;;;;;10428281;28;20483;-83
2023/08/11 21:55:29;;;;;;;9.30;6.00;;;;;;;;;;10427954;28;20488;-83
2023/08/11 22:00:34;;;;;;;8.40;5.75;;;;;;;;;;10430937;28;20444;-83
2023/08/11 22:05:36;;;;;;;9.15;5.93;;;;;;;;;;10410618;28;20467;-83
2023/08/11 22:10:40;;;;;;;7.60;6.03;;;;;;;;;;10428043;28;20409;-83
2023/08/11 22:15:42;;;;;;;7.38;6.07;;;;;;;;;;10424506;28;20496;-83
2023/08/11 22:20:44;;;;;;;6.43;5.80;;;;;;;;;;10408123;28;20409;-83
2023/08/11 22:25:48;;;;;;;8.00;5.53;;;;;;;;;;10416049;28;20538;-83
2023/08/11 22:30:50;;;;;;;6.22;5.63;;;;;;;;;;10429919;28;20975;-83
2023/08/11 22:35:53;;;;;;;6.70;5.30;;;;;;;;;;10429763;28;20415;-83
2023/08/11 22:40:57;;;;;;;7.78;5.72;;;;;;;;;;10426089;28;20790;-82
2023/08/11 22:45:59;;;;;;;6.77;5.03;;;;;;;;;;10432346;28;20967;-83
2023/08/11 22:51:01;;;;;;;6.20;4.90;;;;;;;;;;10427158;28;20440;-83
2023/08/11 22:56:05;;;;;;;5.75;4.93;;;;;;;;;;10430297;28;20457;-83
2023/08/11 23:01:07;;;;;;;5.30;4.55;;;;;;;;;;10428334;28;20413;-83
2023/08/11 23:06:10;;;;;;;6.65;4.55;;;;;;;;;;10430844;28;20762;-83
2023/08/11 23:11:13;;;;;;;5.70;4.40;;;;;;;;;;10428523;28;20414;-83
2023/08/11 23:16:16;;;;;;;5.47;4.20;;;;;;;;;;10432763;28;20407;-83
2023/08/11 23:21:18;;;;;;;7.40;4.80;;;;;;;;;;10426304;28;20444;-83
2023/08/11 23:26:22;;;;;;;6.18;4.72;;;;;;;;;;10428934;28;20417;-82
2023/08/11 23:31:24;;;;;;;5.88;4.80;;;;;;;;;;10431471;28;20465;-83
2023/08/11 23:36:28;;;;;;;6.85;5.30;;;;;;;;;;10436088;28;20423;-82
2023/08/11 23:41:31;;;;;;;6.40;5.77;;;;;;;;;;10435653;28;20421;-83
2023/08/11 23:46:34;;;;;;;7.15;5.82;;;;;;;;;;10435418;28;20471;-82
2023/08/11 23:51:36;;;;;;;8.13;5.50;;;;;;;;;;10433926;28;20944;-82
2023/08/11 23:56:40;;;;;;;7.07;5.75;;;;;;;;;;10434735;28;20410;-83
